Flight Track Log - Related Links

Times and Time Zones

All times are in EDT time to prevent confusion due to time zone crossing. See the N899B flight status page for this flight to view local times or setup timezone preferences in your user account.

Time Position Orientation Groundspeed Altitude Reporting Facility
EDT Latitude Longitude Course Direction KTS MPH feet Rate Location/Type
Thu 05:52:00 AM 41.1818 -80.5095 209° Southwest  Level FlightAware Approximate
Thu 05:52:33 AM 41.6717 -80.2078 209° Southwest 368 423 6,100  Level Cleveland Center
Thu 05:53:33 AM 41.6133 -80.2469 207° Southwest 276 318 8,900 2,750 Climbing Cleveland Center
Thu 05:54:33 AM 41.5531 -80.2944 211° Southwest 247 284 11,600 2,500 Climbing Cleveland Center
Thu 05:55:33 AM 41.4844 -80.3419 207° Southwest 266 306 13,900 2,250 Climbing Cleveland Center
Thu 05:56:33 AM 41.4200 -80.3864 207° Southwest 287 330 16,100 2,200 Climbing Cleveland Center
Thu 05:57:33 AM 41.3428 -80.4422 208° Southwest 307 353 18,300 2,100 Climbing Cleveland Center
Thu 05:58:33 AM 41.2594 -80.5003 208° Southwest 307 353 20,300 2,000 Climbing Cleveland Center
Thu 05:59:33 AM 41.1783 -80.5556 207° Southwest 313 360 22,300 1,950 Climbing Cleveland Center
Thu 06:00:33 AM 41.0969 -80.6106 207° Southwest 319 367 24,200 1,950 Climbing Cleveland Center
Thu 06:01:33 AM 41.0156 -80.6683 208° Southwest 324 373 26,200 1,950 Climbing Cleveland Center
Thu 06:02:33 AM 40.9364 -80.7233 208° Southwest 324 373 28,100 1,700 Climbing Cleveland Center
Thu 06:03:33 AM 40.8550 -80.7781 207° Southwest 324 373 29,600 1,450 Climbing Cleveland Center
Thu 06:04:33 AM 40.7778 -80.8300 207° Southwest 329 379 31,000 1,300 Climbing Cleveland Center
Thu 06:05:33 AM 40.6922 -80.8897 208° Southwest 334 384 32,200 1,100 Climbing Cleveland Center
Thu 06:06:33 AM 40.6044 -80.9522 208° Southwest 344 396 33,200 1,041 Climbing Cleveland Center
Thu 06:08:49 AM 40.3892 -81.0986 207° Southwest 372 428 35,600 1,036 Climbing Indianapolis Center
Thu 06:09:50 AM 40.2958 -81.1611 207° Southwest 371 427 36,600 893 Climbing Indianapolis Center
Thu 06:10:50 AM 40.2042 -81.2236 208° Southwest 368 423 37,400 744 Climbing Indianapolis Center
Thu 06:11:51 AM 40.1117 -81.2867 208° Southwest 370 426 38,100 694 Climbing Indianapolis Center
Thu 06:12:51 AM 40.0203 -81.3481 207° Southwest 368 423 38,800 545 Climbing Indianapolis Center
Thu 06:13:52 AM 39.9425 -81.3992 207° Southwest 367 422 39,200 496 Climbing Indianapolis Center
Thu 06:14:52 AM 39.8453 -81.4650 207° Southwest 369 425 39,800 397 Climbing Indianapolis Center
Thu 06:15:53 AM 39.7536 -81.5264 207° Southwest 367 422 40,000 98 Climbing Indianapolis Center
Thu 06:16:54 AM 39.6478 -81.5956 207° Southwest 379 436 40,000  Level Indianapolis Center
Thu 06:17:54 AM 39.5533 -81.6586 207° Southwest 380 437 40,000  Level Indianapolis Center
Thu 06:18:55 AM 39.4608 -81.7206 207° Southwest 376 433 40,000  Level Indianapolis Center
Thu 06:19:55 AM 39.3667 -81.7825 207° Southwest 379 436 40,000  Level Indianapolis Center
Thu 06:20:56 AM 39.2742 -81.8425 207° Southwest 374 430 40,000  Level Indianapolis Center
Thu 06:21:57 AM 39.1808 -81.9031 207° Southwest 376 433 40,000  Level Indianapolis Center
Thu 06:22:57 AM 39.0894 -81.9633 207° Southwest 373 429 40,000  Level Indianapolis Center
Thu 06:23:58 AM 38.9967 -82.0236 207° Southwest 375 432 40,000  Level Indianapolis Center
Thu 06:24:58 AM 38.9036 -82.0831 206° Southwest 375 432 40,000  Level Indianapolis Center
Thu 06:25:59 AM 38.8111 -82.1436 207° Southwest 375 432 40,000  Level Indianapolis Center
Thu 06:27:00 AM 38.7178 -82.2028 206° Southwest 375 432 40,000  Level Indianapolis Center
Thu 06:28:00 AM 38.6242 -82.2636 207° Southwest 378 435 40,000  Level Indianapolis Center
Thu 06:29:01 AM 38.5297 -82.3242 207° Southwest 380 437 40,000  Level Indianapolis Center
Thu 06:30:02 AM 38.4356 -82.3844 207° Southwest 379 436 40,000  Level Indianapolis Center
Thu 06:31:02 AM 38.3417 -82.4456 207° Southwest 380 437 40,000  Level Indianapolis Center
Thu 06:32:03 AM 38.2353 -82.5111 206° Southwest 378 435 40,000  Level Indianapolis Center
Thu 06:33:04 AM 38.1408 -82.5697 206° Southwest 376 433 40,000  Level Indianapolis Center
Thu 06:34:04 AM 38.0469 -82.6317 207° Southwest 378 435 40,000  Level Indianapolis Center
Thu 06:35:05 AM 37.9511 -82.6911 206° Southwest 381 438 40,000  Level Indianapolis Center
Thu 06:36:06 AM 37.8572 -82.7506 207° Southwest 379 436 40,000  Level Indianapolis Center
Thu 06:37:06 AM 37.7633 -82.8089 206° Southwest 377 434 40,000 -149 Level Indianapolis Center
Thu 06:38:07 AM 37.6678 -82.8675 206° Southwest 379 436 39,700 -639 Descending Indianapolis Center
Thu 06:39:08 AM 37.5697 -82.9294 207° Southwest 392 451 38,700 -942 Descending Indianapolis Center
Thu 06:40:08 AM 37.4731 -82.9917 207° Southwest 390 449 37,800 -1,240 Descending Indianapolis Center
Thu 06:41:09 AM 37.3783 -83.0486 206° Southwest 380 437 36,200 -2,016 Descending Indianapolis Center
Thu 06:42:10 AM 37.2631 -83.1197 206° Southwest 395 455 33,700 -2,262 Descending Indianapolis Center
Thu 06:43:11 AM 37.1642 -83.1797 206° Southwest 395 455 31,600 -2,132 Descending Indianapolis Center
Thu 06:44:11 AM 37.0672 -83.2394 206° Southwest 390 449 29,400 -2,182 Descending Indianapolis Center
Thu 06:45:12 AM 36.9703 -83.2986 206° Southwest 391 450 27,200 -2,164 Descending Indianapolis Center
Thu 06:46:13 AM 36.8739 -83.3575 206° Southwest 387 445 25,000 -2,213 Descending Indianapolis Center
Thu 06:47:14 AM 36.7792 -83.4139 205° Southwest 379 436 22,700 -2,262 Descending Indianapolis Center
Thu 06:48:15 AM 36.6892 -83.4686 206° Southwest 362 417 20,400 -2,231 Descending Indianapolis Center
Thu 06:49:15 AM 36.5997 -83.5228 206° Southwest 358 412 18,200 -2,182 Descending Indianapolis Center
Thu 06:50:16 AM 36.5111 -83.5753 205° Southwest 354 407 16,000 -2,213 Descending Indianapolis Center
Thu 06:51:17 AM 36.4278 -83.6258 206° Southwest 342 394 13,700 -2,257 Descending Indianapolis Center
Thu 06:51:57 AM 36.3725 -83.6622 208° Southwest 337 388 12,200 -1,620 Descending Atlanta Center
Thu 06:52:57 AM 36.2956 -83.6883 195° South 309 356 11,000 -1,150 Descending Atlanta Center
Thu 06:53:57 AM 36.2017 -83.6992 185° South 304 350 9,900 -1,100 Descending Atlanta Center
Thu 06:54:57 AM 36.1183 -83.7072 184° South 304 350 8,800 -1,250 Descending Atlanta Center
Thu 06:55:57 AM 36.0411 -83.7203 188° South 304 350 7,400 -1,600 Descending Atlanta Center
Thu 06:56:57 AM 35.9914 -83.7822 225° Southwest 261 300 5,600 -1,500 Descending Atlanta Center
Thu 06:57:57 AM 35.9475 -83.8336 223° Southwest 239 275 4,400 -1,100 Descending Atlanta Center
Thu 06:58:57 AM 35.9122 -83.8772 225° Southwest 211 243 3,400 -1,050 Descending Atlanta Center
Thu 06:59:57 AM 35.8706 -83.9208 220° Southwest 205 236 2,300 -950 Descending Atlanta Center
Thu 07:00:57 AM 35.8414 -83.9567 225° Southwest 179 206 1,500 -800 Descending Atlanta Center
Thu 07:02:00 AM 35.8000 -83.9833 202° Southwest  Level FlightAware Approximate
Thu 07:09:00 AM 35.8110 -83.9940 202° Southwest  Level Estimated

Login

Don't have an account? Register now (free) for customized features, flight alerts, and more!